sensor_id;sensor_type;location;lat;lon;timestamp;temperature;humidity
21353;DHT22;10834;52.268;6.770;2022-10-17T02:39:33;13.50;99.90
21353;DHT22;10834;52.268;6.770;2022-10-17T03:01:50;13.70;99.90
21353;DHT22;10834;52.268;6.770;2022-10-17T03:16:15;13.80;99.90
21353;DHT22;10834;52.268;6.770;2022-10-17T03:31:24;13.80;99.90
21353;DHT22;10834;52.268;6.770;2022-10-17T04:57:59;14.10;99.90
21353;DHT22;10834;52.268;6.770;2022-10-17T05:20:08;14.20;99.90
21353;DHT22;10834;52.268;6.770;2022-10-17T05:27:38;14.10;99.90
21353;DHT22;10834;52.268;6.770;2022-10-17T06:01:44;14.60;99.90
21353;DHT22;10834;52.268;6.770;2022-10-17T06:27:50;15.00;99.90
21353;DHT22;10834;52.268;6.770;2022-10-17T06:34:57;15.20;99.90
21353;DHT22;10834;52.268;6.770;2022-10-17T06:41:54;15.30;99.90
21353;DHT22;10834;52.268;6.770;2022-10-17T06:56:17;15.60;99.90
21353;DHT22;10834;52.268;6.770;2022-10-17T07:03:31;15.70;99.90
21353;DHT22;10834;52.268;6.770;2022-10-17T07:19:21;16.70;99.90
21353;DHT22;10834;52.268;6.770;2022-10-17T08:18:09;19.20;99.90
21353;DHT22;10834;52.268;6.770;2022-10-17T08:25:59;19.50;99.90
21353;DHT22;10834;52.268;6.770;2022-10-17T08:55:47;18.20;99.90
21353;DHT22;10834;52.268;6.770;2022-10-17T09:55:24;17.70;99.90
21353;DHT22;10834;52.268;6.770;2022-10-17T10:05:29;17.70;99.90
21353;DHT22;10834;52.268;6.770;2022-10-17T11:24:09;17.10;99.90
21353;DHT22;10834;52.268;6.770;2022-10-17T11:46:09;16.90;99.90
21353;DHT22;10834;52.268;6.770;2022-10-17T12:44:46;17.70;99.90
21353;DHT22;10834;52.268;6.770;2022-10-17T12:48:00;17.70;99.90
21353;DHT22;10834;52.268;6.770;2022-10-17T13:09:41;17.30;99.90
21353;DHT22;10834;52.268;6.770;2022-10-17T13:12:28;17.20;99.90
21353;DHT22;10834;52.268;6.770;2022-10-17T13:15:18;17.20;99.90
21353;DHT22;10834;52.268;6.770;2022-10-17T13:18:04;17.20;99.90
21353;DHT22;10834;52.268;6.770;2022-10-17T13:21:06;17.30;99.90
21353;DHT22;10834;52.268;6.770;2022-10-17T13:23:58;17.30;99.90
21353;DHT22;10834;52.268;6.770;2022-10-17T13:26:44;17.30;99.90
21353;DHT22;10834;52.268;6.770;2022-10-17T13:29:31;17.30;99.90
21353;DHT22;10834;52.268;6.770;2022-10-17T13:32:17;17.30;99.90
21353;DHT22;10834;52.268;6.770;2022-10-17T13:37:54;17.20;99.90
21353;DHT22;10834;52.268;6.770;2022-10-17T13:40:42;17.20;99.90
21353;DHT22;10834;52.268;6.770;2022-10-17T13:43:30;17.20;99.90
21353;DHT22;10834;52.268;6.770;2022-10-17T13:46:37;17.20;99.90
21353;DHT22;10834;52.268;6.770;2022-10-17T13:49:32;17.20;99.90
21353;DHT22;10834;52.268;6.770;2022-10-17T13:52:22;17.20;99.90
21353;DHT22;10834;52.268;6.770;2022-10-17T13:55:15;17.30;99.90
21353;DHT22;10834;52.268;6.770;2022-10-17T13:58:17;17.40;99.90
21353;DHT22;10834;52.268;6.770;2022-10-17T14:01:03;17.50;99.90
21353;DHT22;10834;52.268;6.770;2022-10-17T14:03:50;17.60;99.90
21353;DHT22;10834;52.268;6.770;2022-10-17T14:06:41;17.60;99.90
21353;DHT22;10834;52.268;6.770;2022-10-17T14:09:29;17.60;99.90
21353;DHT22;10834;52.268;6.770;2022-10-17T14:12:18;17.60;99.90
21353;DHT22;10834;52.268;6.770;2022-10-17T14:15:05;17.50;99.90
21353;DHT22;10834;52.268;6.770;2022-10-17T14:18:03;17.50;99.90
21353;DHT22;10834;52.268;6.770;2022-10-17T14:20:50;17.40;99.90
21353;DHT22;10834;52.268;6.770;2022-10-17T14:23:39;17.40;99.90
21353;DHT22;10834;52.268;6.770;2022-10-17T14:26:25;17.30;99.90
21353;DHT22;10834;52.268;6.770;2022-10-17T14:32:11;17.20;99.90
21353;DHT22;10834;52.268;6.770;2022-10-17T14:35:00;17.20;99.90
21353;DHT22;10834;52.268;6.770;2022-10-17T14:37:50;17.10;99.90
21353;DHT22;10834;52.268;6.770;2022-10-17T14:40:36;17.20;99.90
21353;DHT22;10834;52.268;6.770;2022-10-17T14:43:25;17.10;99.90
21353;DHT22;10834;52.268;6.770;2022-10-17T14:46:15;17.20;99.90
21353;DHT22;10834;52.268;6.770;2022-10-17T14:49:06;17.10;99.90
21353;DHT22;10834;52.268;6.770;2022-10-17T14:52:29;17.10;99.90
21353;DHT22;10834;52.268;6.770;2022-10-17T14:55:22;17.10;99.90
21353;DHT22;10834;52.268;6.770;2022-10-17T14:58:27;17.10;99.90
21353;DHT22;10834;52.268;6.770;2022-10-17T15:01:13;17.10;99.90
21353;DHT22;10834;52.268;6.770;2022-10-17T15:03:59;17.10;99.90
21353;DHT22;10834;52.268;6.770;2022-10-17T15:06:53;17.10;99.90
21353;DHT22;10834;52.268;6.770;2022-10-17T15:09:40;17.10;99.90
21353;DHT22;10834;52.268;6.770;2022-10-17T15:12:26;17.10;99.90
21353;DHT22;10834;52.268;6.770;2022-10-17T15:15:12;17.10;99.90
21353;DHT22;10834;52.268;6.770;2022-10-17T15:17:58;17.10;99.90
21353;DHT22;10834;52.268;6.770;2022-10-17T15:20:45;17.10;99.90
21353;DHT22;10834;52.268;6.770;2022-10-17T15:23:31;17.10;99.90
21353;DHT22;10834;52.268;6.770;2022-10-17T15:26:25;17.10;99.90
21353;DHT22;10834;52.268;6.770;2022-10-17T15:29:14;17.10;99.90
21353;DHT22;10834;52.268;6.770;2022-10-17T15:32:01;17.10;99.90
21353;DHT22;10834;52.268;6.770;2022-10-17T15:34:47;17.10;99.90
21353;DHT22;10834;52.268;6.770;2022-10-17T15:37:33;17.10;99.90
21353;DHT22;10834;52.268;6.770;2022-10-17T15:40:25;17.10;99.90
21353;DHT22;10834;52.268;6.770;2022-10-17T15:43:13;17.00;99.90
21353;DHT22;10834;52.268;6.770;2022-10-17T15:45:59;17.00;99.90
21353;DHT22;10834;52.268;6.770;2022-10-17T15:48:45;16.90;99.90
21353;DHT22;10834;52.268;6.770;2022-10-17T15:51:32;16.90;99.90
21353;DHT22;10834;52.268;6.770;2022-10-17T15:54:18;16.80;99.90
21353;DHT22;10834;52.268;6.770;2022-10-17T15:57:04;16.80;99.90
21353;DHT22;10834;52.268;6.770;2022-10-17T15:59:51;16.70;99.90
21353;DHT22;10834;52.268;6.770;2022-10-17T16:02:37;16.70;99.90
21353;DHT22;10834;52.268;6.770;2022-10-17T16:05:25;16.60;99.90
21353;DHT22;10834;52.268;6.770;2022-10-17T16:08:11;16.60;99.90
21353;DHT22;10834;52.268;6.770;2022-10-17T16:10:57;16.50;99.90
21353;DHT22;10834;52.268;6.770;2022-10-17T16:13:49;16.40;99.90
21353;DHT22;10834;52.268;6.770;2022-10-17T16:16:36;16.30;99.90
21353;DHT22;10834;52.268;6.770;2022-10-17T16:19:22;16.30;99.90
21353;DHT22;10834;52.268;6.770;2022-10-17T16:22:28;16.30;99.90
21353;DHT22;10834;52.268;6.770;2022-10-17T16:25:23;16.20;99.90
21353;DHT22;10834;52.268;6.770;2022-10-17T16:28:10;16.20;99.90
21353;DHT22;10834;52.268;6.770;2022-10-17T16:30:56;16.10;99.90
21353;DHT22;10834;52.268;6.770;2022-10-17T16:33:42;16.00;99.90
21353;DHT22;10834;52.268;6.770;2022-10-17T16:36:28;15.90;99.90
21353;DHT22;10834;52.268;6.770;2022-10-17T16:39:14;15.90;99.90
21353;DHT22;10834;52.268;6.770;2022-10-17T16:42:00;15.80;99.90
21353;DHT22;10834;52.268;6.770;2022-10-17T16:44:47;15.80;99.90
21353;DHT22;10834;52.268;6.770;2022-10-17T16:47:34;15.80;99.90
21353;DHT22;10834;52.268;6.770;2022-10-17T16:50:20;15.80;99.90
21353;DHT22;10834;52.268;6.770;2022-10-17T16:53:06;15.80;99.90
21353;DHT22;10834;52.268;6.770;2022-10-17T16:56:00;15.70;99.90
21353;DHT22;10834;52.268;6.770;2022-10-17T16:58:46;15.70;99.90
21353;DHT22;10834;52.268;6.770;2022-10-17T17:01:32;15.70;99.90
21353;DHT22;10834;52.268;6.770;2022-10-17T17:04:19;15.60;99.90
21353;DHT22;10834;52.268;6.770;2022-10-17T17:07:05;15.60;99.90
21353;DHT22;10834;52.268;6.770;2022-10-17T17:09:51;15.60;99.90
21353;DHT22;10834;52.268;6.770;2022-10-17T17:12:38;15.60;99.90
21353;DHT22;10834;52.268;6.770;2022-10-17T17:15:24;15.60;99.90
21353;DHT22;10834;52.268;6.770;2022-10-17T17:18:11;15.50;99.90
21353;DHT22;10834;52.268;6.770;2022-10-17T17:21:04;15.50;99.90
21353;DHT22;10834;52.268;6.770;2022-10-17T17:23:51;15.50;99.90
21353;DHT22;10834;52.268;6.770;2022-10-17T17:26:37;15.40;99.90
21353;DHT22;10834;52.268;6.770;2022-10-17T17:29:24;15.40;99.90
21353;DHT22;10834;52.268;6.770;2022-10-17T17:32:10;15.50;99.90
21353;DHT22;10834;52.268;6.770;2022-10-17T17:34:56;15.40;99.90
21353;DHT22;10834;52.268;6.770;2022-10-17T17:37:42;15.40;99.90
21353;DHT22;10834;52.268;6.770;2022-10-17T17:40:28;15.40;99.90
21353;DHT22;10834;52.268;6.770;2022-10-17T17:43:14;15.40;99.90
21353;DHT22;10834;52.268;6.770;2022-10-17T17:46:01;15.40;99.90
21353;DHT22;10834;52.268;6.770;2022-10-17T17:48:48;15.40;99.90
21353;DHT22;10834;52.268;6.770;2022-10-17T17:51:34;15.40;99.90
21353;DHT22;10834;52.268;6.770;2022-10-17T17:54:22;15.40;99.90
21353;DHT22;10834;52.268;6.770;2022-10-17T17:57:08;15.30;99.90
21353;DHT22;10834;52.268;6.770;2022-10-17T17:59:54;15.30;99.90
21353;DHT22;10834;52.268;6.770;2022-10-17T18:02:40;15.30;99.90
21353;DHT22;10834;52.268;6.770;2022-10-17T18:05:27;15.30;99.90
21353;DHT22;10834;52.268;6.770;2022-10-17T18:08:13;15.30;99.90
21353;DHT22;10834;52.268;6.770;2022-10-17T18:11:00;15.40;99.90
21353;DHT22;10834;52.268;6.770;2022-10-17T18:13:46;15.40;99.90
21353;DHT22;10834;52.268;6.770;2022-10-17T18:16:34;15.40;99.90
21353;DHT22;10834;52.268;6.770;2022-10-17T18:19:20;15.40;99.90
21353;DHT22;10834;52.268;6.770;2022-10-17T18:22:08;15.40;99.90
21353;DHT22;10834;52.268;6.770;2022-10-17T18:24:54;15.40;99.90
21353;DHT22;10834;52.268;6.770;2022-10-17T18:27:40;15.40;99.90
21353;DHT22;10834;52.268;6.770;2022-10-17T18:30:27;15.40;99.90
21353;DHT22;10834;52.268;6.770;2022-10-17T18:33:13;15.40;99.90
21353;DHT22;10834;52.268;6.770;2022-10-17T18:36:10;15.40;99.90
21353;DHT22;10834;52.268;6.770;2022-10-17T18:38:58;15.40;99.90
21353;DHT22;10834;52.268;6.770;2022-10-17T18:41:45;15.30;99.90
21353;DHT22;10834;52.268;6.770;2022-10-17T18:44:31;15.30;99.90
21353;DHT22;10834;52.268;6.770;2022-10-17T18:47:17;15.30;99.90
21353;DHT22;10834;52.268;6.770;2022-10-17T18:50:03;15.30;99.90
21353;DHT22;10834;52.268;6.770;2022-10-17T18:52:50;15.30;99.90
21353;DHT22;10834;52.268;6.770;2022-10-17T18:55:38;15.30;99.90
21353;DHT22;10834;52.268;6.770;2022-10-17T18:58:24;15.20;99.90
21353;DHT22;10834;52.268;6.770;2022-10-17T19:01:13;15.20;99.90
21353;DHT22;10834;52.268;6.770;2022-10-17T19:04:00;15.20;99.90
21353;DHT22;10834;52.268;6.770;2022-10-17T19:06:46;15.20;99.90
21353;DHT22;10834;52.268;6.770;2022-10-17T19:09:32;15.20;99.90
21353;DHT22;10834;52.268;6.770;2022-10-17T19:12:18;15.20;99.90
21353;DHT22;10834;52.268;6.770;2022-10-17T19:15:04;15.20;99.90
21353;DHT22;10834;52.268;6.770;2022-10-17T19:17:51;15.20;99.90
21353;DHT22;10834;52.268;6.770;2022-10-17T19:20:37;15.20;99.90
21353;DHT22;10834;52.268;6.770;2022-10-17T19:23:23;15.20;99.90
21353;DHT22;10834;52.268;6.770;2022-10-17T19:26:11;15.20;99.90
21353;DHT22;10834;52.268;6.770;2022-10-17T19:28:57;15.20;99.90
21353;DHT22;10834;52.268;6.770;2022-10-17T19:31:45;15.20;99.90
21353;DHT22;10834;52.268;6.770;2022-10-17T19:34:32;15.20;99.90
21353;DHT22;10834;52.268;6.770;2022-10-17T19:37:19;15.20;99.90
21353;DHT22;10834;52.268;6.770;2022-10-17T19:40:05;15.20;99.90
21353;DHT22;10834;52.268;6.770;2022-10-17T19:42:51;15.20;99.90
21353;DHT22;10834;52.268;6.770;2022-10-17T19:45:39;15.20;99.90
21353;DHT22;10834;52.268;6.770;2022-10-17T19:48:26;15.20;99.90
21353;DHT22;10834;52.268;6.770;2022-10-17T19:51:14;15.20;99.90
21353;DHT22;10834;52.268;6.770;2022-10-17T19:54:01;15.20;99.90
21353;DHT22;10834;52.268;6.770;2022-10-17T19:56:47;15.20;99.90
21353;DHT22;10834;52.268;6.770;2022-10-17T19:59:33;15.20;99.90
21353;DHT22;10834;52.268;6.770;2022-10-17T20:02:19;15.20;99.90
21353;DHT22;10834;52.268;6.770;2022-10-17T20:05:05;15.30;99.90
21353;DHT22;10834;52.268;6.770;2022-10-17T20:07:57;15.30;99.90
21353;DHT22;10834;52.268;6.770;2022-10-17T20:10:43;15.30;99.90
21353;DHT22;10834;52.268;6.770;2022-10-17T20:13:29;15.30;99.90
21353;DHT22;10834;52.268;6.770;2022-10-17T20:16:17;15.30;99.90
21353;DHT22;10834;52.268;6.770;2022-10-17T20:19:10;15.20;99.90
21353;DHT22;10834;52.268;6.770;2022-10-17T20:21:57;15.20;99.90
21353;DHT22;10834;52.268;6.770;2022-10-17T20:24:43;15.10;99.90
21353;DHT22;10834;52.268;6.770;2022-10-17T20:27:29;15.10;99.90
21353;DHT22;10834;52.268;6.770;2022-10-17T20:30:15;15.00;99.90
21353;DHT22;10834;52.268;6.770;2022-10-17T20:33:01;15.00;99.90
21353;DHT22;10834;52.268;6.770;2022-10-17T20:35:48;14.90;99.90
21353;DHT22;10834;52.268;6.770;2022-10-17T20:38:34;14.90;99.90
21353;DHT22;10834;52.268;6.770;2022-10-17T20:41:21;14.90;99.90
21353;DHT22;10834;52.268;6.770;2022-10-17T20:44:07;14.90;99.90
21353;DHT22;10834;52.268;6.770;2022-10-17T20:46:53;14.80;99.90
21353;DHT22;10834;52.268;6.770;2022-10-17T20:49:39;14.90;99.90
21353;DHT22;10834;52.268;6.770;2022-10-17T20:52:25;14.90;99.90
21353;DHT22;10834;52.268;6.770;2022-10-17T20:55:11;14.90;99.90
21353;DHT22;10834;52.268;6.770;2022-10-17T20:57:58;15.00;99.90
21353;DHT22;10834;52.268;6.770;2022-10-17T21:00:44;15.00;99.90
21353;DHT22;10834;52.268;6.770;2022-10-17T21:03:30;15.00;99.90
21353;DHT22;10834;52.268;6.770;2022-10-17T21:06:19;15.00;99.90
21353;DHT22;10834;52.268;6.770;2022-10-17T21:09:06;15.00;99.90
21353;DHT22;10834;52.268;6.770;2022-10-17T21:11:52;15.00;99.90
21353;DHT22;10834;52.268;6.770;2022-10-17T21:14:40;14.90;99.90
21353;DHT22;10834;52.268;6.770;2022-10-17T21:17:26;14.90;99.90
21353;DHT22;10834;52.268;6.770;2022-10-17T21:20:12;14.80;99.90
21353;DHT22;10834;52.268;6.770;2022-10-17T21:22:58;14.80;99.90
21353;DHT22;10834;52.268;6.770;2022-10-17T21:25:45;14.80;99.90
21353;DHT22;10834;52.268;6.770;2022-10-17T21:28:31;14.70;99.90
21353;DHT22;10834;52.268;6.770;2022-10-17T21:31:22;14.70;99.90
21353;DHT22;10834;52.268;6.770;2022-10-17T21:34:21;14.60;99.90
21353;DHT22;10834;52.268;6.770;2022-10-17T21:37:08;14.60;99.90
21353;DHT22;10834;52.268;6.770;2022-10-17T21:39:54;14.60;99.90
21353;DHT22;10834;52.268;6.770;2022-10-17T21:42:40;14.50;99.90
21353;DHT22;10834;52.268;6.770;2022-10-17T21:45:26;14.50;99.90
21353;DHT22;10834;52.268;6.770;2022-10-17T21:48:12;14.40;99.90
21353;DHT22;10834;52.268;6.770;2022-10-17T21:51:01;14.40;99.90
21353;DHT22;10834;52.268;6.770;2022-10-17T21:53:48;14.40;99.90
21353;DHT22;10834;52.268;6.770;2022-10-17T21:56:34;14.40;99.90
21353;DHT22;10834;52.268;6.770;2022-10-17T21:59:21;14.30;99.90
21353;DHT22;10834;52.268;6.770;2022-10-17T22:02:07;14.30;99.90
21353;DHT22;10834;52.268;6.770;2022-10-17T22:04:53;14.30;99.90
21353;DHT22;10834;52.268;6.770;2022-10-17T22:07:39;14.30;99.90
21353;DHT22;10834;52.268;6.770;2022-10-17T22:10:25;14.30;99.90
21353;DHT22;10834;52.268;6.770;2022-10-17T22:13:11;14.20;99.90
21353;DHT22;10834;52.268;6.770;2022-10-17T22:16:01;14.20;99.90
21353;DHT22;10834;52.268;6.770;2022-10-17T22:18:48;14.20;99.90
21353;DHT22;10834;52.268;6.770;2022-10-17T22:21:35;14.20;99.90
21353;DHT22;10834;52.268;6.770;2022-10-17T22:24:22;14.20;99.90
21353;DHT22;10834;52.268;6.770;2022-10-17T22:27:08;14.10;99.90
21353;DHT22;10834;52.268;6.770;2022-10-17T22:29:55;14.20;99.90
21353;DHT22;10834;52.268;6.770;2022-10-17T22:32:41;14.20;99.90
21353;DHT22;10834;52.268;6.770;2022-10-17T22:35:27;14.20;99.90
21353;DHT22;10834;52.268;6.770;2022-10-17T22:38:13;14.20;99.90
21353;DHT22;10834;52.268;6.770;2022-10-17T22:40:59;14.30;99.90
21353;DHT22;10834;52.268;6.770;2022-10-17T22:43:46;14.30;99.90
21353;DHT22;10834;52.268;6.770;2022-10-17T22:46:32;14.40;99.90
21353;DHT22;10834;52.268;6.770;2022-10-17T22:49:18;14.40;99.90
21353;DHT22;10834;52.268;6.770;2022-10-17T22:52:04;14.50;99.90
21353;DHT22;10834;52.268;6.770;2022-10-17T22:54:50;14.50;99.90
21353;DHT22;10834;52.268;6.770;2022-10-17T22:57:36;14.50;99.90
21353;DHT22;10834;52.268;6.770;2022-10-17T23:00:22;14.60;99.90
21353;DHT22;10834;52.268;6.770;2022-10-17T23:03:08;14.70;99.90
21353;DHT22;10834;52.268;6.770;2022-10-17T23:05:54;14.70;99.90
21353;DHT22;10834;52.268;6.770;2022-10-17T23:08:41;14.70;99.90
21353;DHT22;10834;52.268;6.770;2022-10-17T23:11:28;14.70;99.90
21353;DHT22;10834;52.268;6.770;2022-10-17T23:14:14;14.80;99.90
21353;DHT22;10834;52.268;6.770;2022-10-17T23:17:00;14.80;99.90
21353;DHT22;10834;52.268;6.770;2022-10-17T23:19:46;14.80;99.90
21353;DHT22;10834;52.268;6.770;2022-10-17T23:22:32;14.90;99.90
21353;DHT22;10834;52.268;6.770;2022-10-17T23:25:18;14.90;99.90
21353;DHT22;10834;52.268;6.770;2022-10-17T23:28:05;14.90;99.90
21353;DHT22;10834;52.268;6.770;2022-10-17T23:30:52;14.90;99.90
21353;DHT22;10834;52.268;6.770;2022-10-17T23:33:39;15.00;99.90
21353;DHT22;10834;52.268;6.770;2022-10-17T23:36:26;15.00;99.90
21353;DHT22;10834;52.268;6.770;2022-10-17T23:39:12;15.10;99.90
21353;DHT22;10834;52.268;6.770;2022-10-17T23:41:57;15.10;99.90
21353;DHT22;10834;52.268;6.770;2022-10-17T23:44:43;15.10;99.90
21353;DHT22;10834;52.268;6.770;2022-10-17T23:47:29;15.20;99.90
21353;DHT22;10834;52.268;6.770;2022-10-17T23:50:16;15.20;99.90
21353;DHT22;10834;52.268;6.770;2022-10-17T23:53:02;15.20;99.90
21353;DHT22;10834;52.268;6.770;2022-10-17T23:55:48;15.20;99.90
21353;DHT22;10834;52.268;6.770;2022-10-17T23:58:35;15.20;99.90
